Time;durP1;ratioP1;P1;durP2;ratioP2;P2;SDS_P1;SDS_P2;PMS_P1;PMS_P2;Temp;Humidity;BMP_temperature;BMP_pressure;BME280_temperature;BME280_humidity;BME280_pressure;Samples;Min_cycle;Max_cycle;Signal;HPM_P1;HPM_P2
2024/04/22 00:01:20;;;;;;;12.80;6.10;;;4.70;42.30;;;;;;5491225;26;21059;-75
2024/04/22 00:03:46;;;;;;;9.63;5.70;;;5.00;56.60;;;;;;5492115;26;20349;-71
2024/04/22 00:06:11;;;;;;;7.37;5.40;;;4.80;43.00;;;;;;5497000;26;20784;-71
2024/04/22 00:08:37;;;;;;;9.33;5.67;;;4.70;43.70;;;;;;5494238;26;20436;-70
2024/04/22 00:11:03;;;;;;;9.47;5.60;;;4.80;56.50;;;;;;5492612;26;20342;-73
2024/04/22 00:13:29;;;;;;;9.43;6.10;;;4.70;43.30;;;;;;5498667;26;20337;-73
2024/04/22 00:15:55;;;;;;;8.70;5.80;;;4.60;44.30;;;;;;5499795;26;20326;-70
2024/04/22 00:18:20;;;;;;;7.85;5.57;;;4.60;44.80;;;;;;5499014;26;20357;-71
2024/04/22 00:20:46;;;;;;;8.20;6.10;;;4.60;44.70;;;;;;5497171;26;20322;-72
2024/04/22 00:23:12;;;;;;;9.90;6.50;;;4.50;59.90;;;;;;5493693;26;20382;-72
2024/04/22 00:25:37;;;;;;;8.33;5.60;;;4.50;45.60;;;;;;5491885;26;20382;-71
2024/04/22 00:28:03;;;;;;;7.23;5.87;;;4.70;46.30;;;;;;5493080;26;20845;-71
2024/04/22 00:30:29;;;;;;;10.85;6.40;;;4.50;46.20;;;;;;5493234;26;20330;-73
2024/04/22 00:32:54;;;;;;;8.88;6.10;;;4.50;51.20;;;;;;5497710;26;20681;-72
2024/04/22 00:35:20;;;;;;;8.60;5.97;;;4.70;47.80;;;;;;5497300;26;20318;-71
2024/04/22 00:37:46;;;;;;;8.63;6.50;;;4.30;47.90;;;;;;5495318;26;20326;-70
2024/04/22 00:40:11;;;;;;;10.70;6.60;;;4.20;48.10;;;;;;5497510;26;20328;-71
2024/04/22 00:42:42;;;;;;;11.20;6.70;;;4.20;49.20;;;;;;5498976;26;20862;-71
2024/04/22 00:45:08;;;;;;;8.38;6.43;;;4.00;51.90;;;;;;5498913;26;20358;-71
2024/04/22 00:47:33;;;;;;;8.40;6.20;;;4.00;51.20;;;;;;5500837;26;20349;-71
2024/04/22 00:49:59;;;;;;;12.43;6.83;;;4.20;51.70;;;;;;5502805;26;20314;-73
2024/04/22 00:52:25;;;;;;;9.60;6.50;;;3.90;66.10;;;;;;5504281;26;20339;-72
2024/04/22 00:54:50;;;;;;;9.60;6.40;;;4.50;67.70;;;;;;5502044;26;20655;-72
2024/04/22 00:57:16;;;;;;;10.27;6.22;;;4.00;51.60;;;;;;5504205;26;20844;-71
2024/04/22 00:59:42;;;;;;;9.07;6.25;;;4.20;50.80;;;;;;5505089;26;20339;-73
2024/04/22 01:02:08;;;;;;;8.60;6.20;;;4.10;51.00;;;;;;5493768;26;20359;-71
2024/04/22 01:04:36;;;;;;;8.45;6.50;;;4.00;51.90;;;;;;5491210;26;20326;-71
2024/04/22 01:07:01;;;;;;;9.27;6.50;;;3.80;52.90;;;;;;5497950;26;20322;-72
2024/04/22 01:09:27;;;;;;;8.77;6.10;;;4.20;51.90;;;;;;5506558;26;20400;-71
2024/04/22 01:11:53;;;;;;;9.90;6.80;;;4.30;51.70;;;;;;5502461;26;20689;-72
2024/04/22 01:14:19;;;;;;;8.50;6.25;;;4.30;51.60;;;;;;5494672;26;20850;-71
2024/04/22 01:16:53;;;;;;;10.15;6.90;;;4.30;51.60;;;;;;5486288;26;20330;-70
2024/04/22 01:19:18;;;;;;;12.48;6.50;;;4.30;51.60;;;;;;5496149;26;20330;-73
2024/04/22 01:21:44;;;;;;;10.63;6.70;;;4.30;51.20;;;;;;5503107;26;20355;-73
2024/04/22 01:24:11;;;;;;;9.50;6.30;;;4.20;52.00;;;;;;5495761;26;20427;-71
2024/04/22 01:26:36;;;;;;;9.23;6.20;;;4.30;51.60;;;;;;5488937;26;20428;-70
2024/04/22 01:29:02;;;;;;;9.20;6.83;;;4.30;50.70;;;;;;5489379;26;20330;-71
2024/04/22 01:31:28;;;;;;;10.20;6.80;;;4.40;49.80;;;;;;5491195;26;20334;-71
2024/04/22 01:33:53;;;;;;;8.73;5.93;;;4.40;49.40;;;;;;5507001;26;20311;-72
2024/04/22 01:36:19;;;;;;;11.23;7.05;;;4.30;49.60;;;;;;5505587;26;20322;-71
2024/04/22 01:38:44;;;;;;;8.77;6.85;;;4.20;50.20;;;;;;5501771;26;20351;-72
2024/04/22 01:41:10;;;;;;;11.30;7.88;;;4.20;49.10;;;;;;5504233;26;20362;-71
2024/04/22 01:43:35;;;;;;;9.53;6.33;;;4.10;49.60;;;;;;5492900;26;20330;-71
2024/04/22 01:46:03;;;;;;;10.53;7.40;;;4.20;50.10;;;;;;5494086;26;20330;-71
2024/04/22 01:48:29;;;;;;;10.67;7.40;;;4.10;51.00;;;;;;5503766;26;20427;-72
2024/04/22 01:50:55;;;;;;;12.10;7.13;;;4.00;50.80;;;;;;5504453;26;20420;-72
2024/04/22 01:53:20;;;;;;;10.03;7.00;;;4.00;52.00;;;;;;5501669;26;20330;-73
2024/04/22 01:55:46;;;;;;;9.87;6.50;;;3.90;53.10;;;;;;5503689;26;20350;-73
2024/04/22 01:58:11;;;;;;;9.43;7.20;;;4.00;52.70;;;;;;5503912;26;20393;-71
2024/04/22 02:00:37;;;;;;;9.40;6.80;;;4.10;52.70;;;;;;5504000;26;20338;-72
2024/04/22 02:03:03;;;;;;;10.67;6.33;;;4.10;52.50;;;;;;5500003;26;20322;-72
2024/04/22 02:05:28;;;;;;;10.00;6.50;;;4.10;52.70;;;;;;5501114;26;20366;-69
2024/04/22 02:07:54;;;;;;;10.40;7.20;;;4.00;53.30;;;;;;5494999;26;20358;-72
2024/04/22 02:10:19;;;;;;;11.38;7.40;;;4.00;54.30;;;;;;5506147;26;20323;-71
2024/04/22 02:12:45;;;;;;;9.82;6.45;;;4.00;53.80;;;;;;5504471;26;20343;-73
2024/04/22 02:15:10;;;;;;;10.70;6.53;;;3.90;54.00;;;;;;5494034;26;20326;-72
2024/04/22 02:17:36;;;;;;;11.75;6.85;;;3.90;54.90;;;;;;5486434;26;20326;-73
2024/04/22 02:20:01;;;;;;;13.02;6.60;;;3.90;54.90;;;;;;5486322;26;20338;-72
2024/04/22 02:22:27;;;;;;;10.75;7.03;;;3.90;55.40;;;;;;5486139;26;20345;-73
2024/04/22 02:24:52;;;;;;;14.87;7.80;;;4.10;56.90;;;;;;5485621;26;20322;-72
2024/04/22 02:27:18;;;;;;;10.53;7.13;;;3.90;57.90;;;;;;5486117;26;20722;-71
2024/04/22 02:29:43;;;;;;;11.30;7.40;;;3.90;57.10;;;;;;5486006;26;20326;-71
2024/04/22 02:32:09;;;;;;;11.53;7.33;;;4.00;57.20;;;;;;5486275;26;20333;-72
2024/04/22 02:34:36;;;;;;;11.50;7.73;;;3.80;58.20;;;;;;5485489;26;20374;-72
2024/04/22 02:37:01;;;;;;;12.53;7.93;;;3.80;58.90;;;;;;5485921;26;20330;-72
2024/04/22 02:39:27;;;;;;;11.85;8.07;;;3.90;59.20;;;;;;5485946;26;20386;-73
2024/04/22 02:41:52;;;;;;;13.77;8.05;;;3.90;59.60;;;;;;5485274;26;20334;-72
2024/04/22 02:44:18;;;;;;;12.75;7.72;;;5.30;62.40;;;;;;5485457;26;20397;-71
2024/04/22 02:46:43;;;;;;;13.73;8.40;;;3.90;60.20;;;;;;5485181;26;20362;-72
2024/04/22 02:49:09;;;;;;;12.30;7.80;;;3.90;59.50;;;;;;5485630;26;20322;-73
2024/04/22 02:51:35;;;;;;;12.57;7.40;;;4.00;59.30;;;;;;5488773;26;20350;-72
2024/04/22 02:54:00;;;;;;;11.32;7.57;;;2.70;60.90;;;;;;5489085;26;20366;-72
2024/04/22 02:56:26;;;;;;;14.63;8.60;;;4.10;58.80;;;;;;5488739;26;20707;-72
2024/04/22 02:58:51;;;;;;;14.85;8.65;;;4.10;58.30;;;;;;5489282;26;20330;-73
2024/04/22 03:01:17;;;;;;;13.05;8.30;;;3.90;59.40;;;;;;5488805;26;20366;-71
2024/04/22 03:03:43;;;;;;;12.50;8.00;;;4.10;58.00;;;;;;5489012;26;20906;-70
2024/04/22 03:06:08;;;;;;;13.30;7.87;;;4.10;58.10;;;;;;5488863;26;20704;-72
2024/04/22 03:08:34;;;;;;;12.53;7.90;;;4.10;58.90;;;;;;5488960;26;20370;-73
2024/04/22 03:11:00;;;;;;;13.73;7.60;;;4.00;56.10;;;;;;5490724;26;20334;-71
2024/04/22 03:13:26;;;;;;;13.77;7.60;;;4.20;56.60;;;;;;5487600;26;20816;-74
2024/04/22 03:15:51;;;;;;;12.37;7.50;;;4.20;56.40;;;;;;5488724;26;20607;-70
2024/04/22 03:18:17;;;;;;;10.43;7.60;;;4.20;56.00;;;;;;5488848;26;20365;-71
2024/04/22 03:20:44;;;;;;;11.53;7.70;;;5.10;58.50;;;;;;5490278;26;20792;-72
2024/04/22 03:23:09;;;;;;;12.93;7.72;;;4.30;55.70;;;;;;5493293;26;20401;-71
2024/04/22 03:25:35;;;;;;;10.15;7.20;;;4.20;55.70;;;;;;5489578;26;20338;-72
2024/04/22 03:28:00;;;;;;;13.30;7.88;;;4.20;56.20;;;;;;5488550;26;20434;-72
2024/04/22 03:30:26;;;;;;;11.30;7.77;;;4.00;56.80;;;;;;5491809;26;20338;-74
2024/04/22 03:32:51;;;;;;;10.00;6.50;;;4.30;58.90;;;;;;5491196;26;20330;-71
2024/04/22 03:35:17;;;;;;;12.53;8.10;;;4.20;57.90;;;;;;5488073;26;20348;-71
2024/04/22 03:37:43;;;;;;;12.07;7.50;;;4.30;58.40;;;;;;5488166;26;20754;-70
2024/04/22 03:40:08;;;;;;;11.80;7.80;;;4.30;61.40;;;;;;5492553;26;20330;-73
2024/04/22 03:42:34;;;;;;;9.00;6.78;;;4.40;59.10;;;;;;5496724;26;20338;-74
2024/04/22 03:44:59;;;;;;;12.10;8.40;;;4.40;59.30;;;;;;5491310;26;20326;-72
2024/04/22 03:50:09;;;;;;;14.05;8.18;;;4.70;59.00;;;;;;5488488;26;20369;-71
2024/04/22 03:52:34;;;;;;;11.20;8.05;;;4.40;59.20;;;;;;5487989;26;20681;-72
2024/04/22 03:55:00;;;;;;;14.70;8.85;;;4.50;59.20;;;;;;5487578;26;20922;-72
2024/04/22 03:57:26;;;;;;;13.80;8.27;;;4.50;60.20;;;;;;5488371;26;20452;-72
2024/04/22 03:59:51;;;;;;;13.63;9.02;;;4.40;60.70;;;;;;5491106;26;20362;-72
2024/04/22 04:02:17;;;;;;;12.68;8.10;;;4.50;60.50;;;;;;5492987;26;20342;-72
2024/04/22 04:04:42;;;;;;;14.23;8.40;;;4.50;60.30;;;;;;5494094;26;20397;-73
2024/04/22 04:07:08;;;;;;;17.87;8.80;;;4.50;60.10;;;;;;5493450;26;20331;-71
2024/04/22 04:09:35;;;;;;;13.13;8.90;;;4.50;60.10;;;;;;5488630;26;20330;-74
2024/04/22 04:12:01;;;;;;;13.75;8.80;;;4.60;60.10;;;;;;5488085;26;20385;-73
2024/04/22 04:14:26;;;;;;;11.57;8.40;;;4.60;60.10;;;;;;5488039;26;20334;-72
2024/04/22 04:16:52;;;;;;;13.93;8.57;;;4.60;60.60;;;;;;5488286;26;20442;-71
2024/04/22 04:19:17;;;;;;;13.53;8.30;;;4.60;62.60;;;;;;5486956;26;20362;-71
2024/04/22 04:21:43;;;;;;;13.00;8.70;;;4.70;61.10;;;;;;5489214;26;20428;-72
2024/04/22 04:24:08;;;;;;;12.63;8.10;;;4.80;59.60;;;;;;5487625;26;20382;-70
2024/04/22 04:26:34;;;;;;;15.03;8.70;;;4.80;59.60;;;;;;5487412;26;20333;-71
2024/04/22 04:28:59;;;;;;;12.15;8.57;;;4.80;58.70;;;;;;5487897;26;20448;-71
2024/04/22 04:31:25;;;;;;;15.57;8.90;;;4.80;58.20;;;;;;5487272;26;20334;-72
2024/04/22 04:33:51;;;;;;;15.93;8.70;;;4.80;59.30;;;;;;5487574;26;20337;-73
2024/04/22 04:36:17;;;;;;;11.80;8.63;;;4.70;60.40;;;;;;5486770;26;20697;-72
2024/04/22 04:38:43;;;;;;;12.23;8.13;;;4.80;59.50;;;;;;5487475;26;20333;-71
2024/04/22 04:41:08;;;;;;;13.30;8.60;;;4.80;58.90;;;;;;5487382;26;20781;-71
2024/04/22 04:43:34;;;;;;;12.68;8.02;;;4.70;59.00;;;;;;5487397;26;20856;-72
2024/04/22 04:45:59;;;;;;;13.27;8.80;;;4.70;59.20;;;;;;5486495;26;20362;-70
2024/04/22 04:48:25;;;;;;;13.33;8.37;;;4.70;59.80;;;;;;5486995;26;20879;-71
2024/04/22 04:50:51;;;;;;;15.25;8.95;;;4.70;60.70;;;;;;5487103;26;20327;-72
2024/04/22 04:53:20;;;;;;;14.33;8.60;;;4.70;61.20;;;;;;5488496;26;20379;-71
2024/04/22 04:55:46;;;;;;;11.82;8.35;;;4.70;61.40;;;;;;5488325;26;20901;-72
2024/04/22 04:58:12;;;;;;;12.93;8.95;;;4.60;61.00;;;;;;5488291;26;20420;-72
2024/04/22 05:00:39;;;;;;;16.75;10.18;;;4.60;61.30;;;;;;5488150;26;20381;-71
2024/04/22 05:03:04;;;;;;;17.93;9.57;;;4.60;62.20;;;;;;5488616;26;20318;-72
2024/04/22 05:05:30;;;;;;;16.95;10.10;;;4.70;62.90;;;;;;5488229;26;20334;-71
2024/04/22 05:07:55;;;;;;;21.02;10.35;;;4.60;63.70;;;;;;5487725;26;20334;-72
2024/04/22 05:10:22;;;;;;;16.05;10.23;;;4.70;63.40;;;;;;5488267;26;20322;-72
2024/04/22 05:12:48;;;;;;;15.15;9.90;;;4.70;63.90;;;;;;5488547;26;20352;-72
2024/04/22 05:15:14;;;;;;;14.70;10.10;;;4.70;64.10;;;;;;5488983;26;20500;-71
2024/04/22 05:17:40;;;;;;;17.33;10.53;;;4.80;63.70;;;;;;5488120;26;20326;-72
2024/04/22 05:20:06;;;;;;;15.90;10.20;;;4.70;65.30;;;;;;5488548;26;20839;-72
2024/04/22 05:22:31;;;;;;;17.75;9.90;;;4.90;63.90;;;;;;5493659;26;20354;-72
2024/04/22 05:24:57;;;;;;;18.20;9.50;;;4.90;64.00;;;;;;5494076;26;20346;-73
2024/04/22 05:27:22;;;;;;;16.20;9.67;;;4.90;63.20;;;;;;5490154;26;20539;-71
2024/04/22 05:29:49;;;;;;;15.13;9.60;;;5.00;62.60;;;;;;5487021;26;20363;-71
2024/04/22 05:32:15;;;;;;;15.00;9.82;;;5.00;62.80;;;;;;5487496;26;20368;-71
2024/04/22 05:37:25;;;;;;;18.80;10.80;;;5.00;61.50;;;;;;5487790;26;20355;-72
2024/04/22 05:39:51;;;;;;;15.27;10.10;;;4.90;62.40;;;;;;5487725;26;20342;-72
2024/04/22 05:42:16;;;;;;;18.40;10.50;;;5.00;61.00;;;;;;5487501;26;20374;-73
2024/04/22 05:44:42;;;;;;;16.85;11.10;;;5.10;60.70;;;;;;5485559;26;20365;-73
2024/04/22 05:47:07;;;;;;;15.90;10.15;;;5.10;62.80;;;;;;5487712;26;20330;-72
2024/04/22 05:49:33;;;;;;;15.15;9.63;;;5.20;59.90;;;;;;5487396;26;20431;-71
2024/04/22 05:51:59;;;;;;;18.23;11.07;;;5.60;60.90;;;;;;5487529;26;20447;-71
2024/04/22 05:54:24;;;;;;;16.97;10.33;;;5.50;59.20;;;;;;5487841;26;20335;-72
2024/04/22 05:56:50;;;;;;;15.47;9.83;;;5.50;59.00;;;;;;5486975;26;20431;-71
2024/04/22 05:59:16;;;;;;;22.27;10.30;;;5.50;56.90;;;;;;5487674;26;20334;-71
2024/04/22 06:01:42;;;;;;;18.17;10.63;;;5.60;57.50;;;;;;5488603;26;20885;-72
2024/04/22 06:04:08;;;;;;;17.85;10.57;;;5.60;56.10;;;;;;5489932;26;20349;-72
2024/04/22 06:06:37;;;;;;;17.83;10.50;;;5.70;55.30;;;;;;5490688;26;20366;-72
2024/04/22 06:09:03;;;;;;;19.25;11.15;;;5.70;57.40;;;;;;5489901;26;20424;-70
2024/04/22 06:11:30;;;;;;;16.17;10.15;;;5.80;55.10;;;;;;5491204;26;20386;-71
2024/04/22 06:13:58;;;;;;;17.92;10.98;;;5.80;54.50;;;;;;5489720;26;20333;-74
2024/04/22 06:16:25;;;;;;;13.50;10.25;;;5.90;54.80;;;;;;5490731;26;20322;-72
2024/04/22 06:18:51;;;;;;;19.65;10.93;;;5.80;54.60;;;;;;5488752;26;20728;-71
2024/04/22 06:21:16;;;;;;;16.95;10.50;;;5.90;53.80;;;;;;5490315;26;20427;-72
2024/04/22 06:23:42;;;;;;;18.13;10.52;;;5.90;57.20;;;;;;5500740;26;20334;-71
2024/04/22 06:26:08;;;;;;;17.20;10.57;;;5.80;59.00;;;;;;5497789;26;20366;-71
2024/04/22 06:28:34;;;;;;;17.05;10.18;;;5.90;54.00;;;;;;5493989;26;20330;-72
2024/04/22 06:31:00;;;;;;;17.30;10.60;;;6.00;55.70;;;;;;5490530;26;20378;-72
2024/04/22 06:33:27;;;;;;;18.48;10.60;;;6.10;53.80;;;;;;5489589;26;20334;-71
2024/04/22 06:35:52;;;;;;;19.90;10.68;;;5.90;53.60;;;;;;5488080;26;20322;-72
2024/04/22 06:38:18;;;;;;;16.77;10.57;;;5.90;58.30;;;;;;5489972;26;20334;-72
2024/04/22 06:40:44;;;;;;;16.27;10.85;;;6.10;53.70;;;;;;5488762;26;20370;-71
2024/04/22 06:43:10;;;;;;;20.83;11.27;;;6.20;52.30;;;;;;5489493;26;20330;-72
2024/04/22 06:45:37;;;;;;;21.07;11.30;;;6.40;52.00;;;;;;5490596;26;20691;-75
2024/04/22 06:48:03;;;;;;;17.05;10.68;;;6.50;50.80;;;;;;5491686;26;20802;-72
2024/04/22 06:50:29;;;;;;;24.52;12.80;;;6.70;49.60;;;;;;5490245;26;20654;-72
2024/04/22 06:52:54;;;;;;;19.27;11.20;;;6.80;50.00;;;;;;5488310;26;20354;-72
2024/04/22 06:55:22;;;;;;;19.03;11.40;;;6.70;57.40;;;;;;5486268;26;20420;-73
2024/04/22 06:57:47;;;;;;;17.17;10.98;;;7.00;55.20;;;;;;5486316;26;20375;-71
2024/04/22 07:00:13;;;;;;;17.10;10.07;;;7.40;45.40;;;;;;5485783;26;20370;-71
2024/04/22 07:02:39;;;;;;;17.67;10.02;;;7.40;44.80;;;;;;5515763;26;20371;-71
2024/04/22 07:05:04;;;;;;;15.20;9.63;;;7.40;43.20;;;;;;5522436;26;20315;-71
2024/04/22 07:07:32;;;;;;;15.90;9.60;;;7.50;49.00;;;;;;5522125;26;20410;-72
2024/04/22 07:09:57;;;;;;;14.80;9.63;;;7.70;47.00;;;;;;5523001;26;20365;-71
2024/04/22 07:12:23;;;;;;;14.80;8.90;;;7.80;45.80;;;;;;5521847;26;20328;-72
2024/04/22 07:14:49;;;;;;;21.35;9.63;;;7.90;40.00;;;;;;5522212;26;20338;-72
2024/04/22 07:17:14;;;;;;;14.10;8.40;;;7.80;39.70;;;;;;5523315;26;20392;-71
2024/04/22 07:19:40;;;;;;;14.15;9.50;;;8.70;43.00;;;;;;5522613;26;20370;-71
2024/04/22 07:22:06;;;;;;;13.93;8.80;;;8.30;39.10;;;;;;5521692;26;20327;-71
2024/04/22 07:24:31;;;;;;;14.93;9.07;;;8.50;38.50;;;;;;5485731;26;20460;-71
2024/04/22 07:26:57;;;;;;;11.35;6.97;;;8.70;37.70;;;;;;5514079;26;20328;-72
2024/04/22 07:29:23;;;;;;;11.63;8.00;;;8.90;36.40;;;;;;5516437;26;20355;-72
2024/04/22 07:31:50;;;;;;;10.43;7.53;;;9.00;36.10;;;;;;5517687;26;20356;-72
2024/04/22 07:34:16;;;;;;;14.05;7.22;;;9.20;35.20;;;;;;5488036;26;20343;-71
2024/04/22 07:36:46;;;;;;;10.25;6.10;;;9.30;33.10;;;;;;5521888;26;20394;-72
2024/04/22 07:39:14;;;;;;;8.45;6.07;;;9.20;32.50;;;;;;5525779;26;20708;-71
2024/04/22 07:41:40;;;;;;;7.55;5.40;;;9.10;31.60;;;;;;5523705;26;20761;-71
2024/04/22 07:44:06;;;;;;;9.18;6.07;;;9.00;32.00;;;;;;5525637;26;20336;-72
2024/04/22 07:46:32;;;;;;;12.10;5.50;;;8.90;31.00;;;;;;5521577;26;20375;-71
2024/04/22 07:48:58;;;;;;;10.63;6.18;;;8.90;31.50;;;;;;5523339;26;20327;-73
2024/04/22 07:51:24;;;;;;;8.77;5.93;;;9.00;32.70;;;;;;5522550;26;20412;-72
2024/04/22 07:53:49;;;;;;;9.13;5.37;;;9.20;33.70;;;;;;5523396;26;20438;-72
2024/04/22 07:56:16;;;;;;;9.17;5.40;;;9.00;30.90;;;;;;5522489;26;20323;-71
2024/04/22 07:58:43;;;;;;;6.22;3.80;;;9.30;28.70;;;;;;5484555;26;20327;-73
2024/04/22 08:01:10;;;;;;;8.98;5.10;;;9.50;26.70;;;;;;5522275;26;20820;-72
2024/04/22 08:03:36;;;;;;;8.07;4.53;;;9.50;27.40;;;;;;5524959;26;20327;-72
2024/04/22 08:06:08;;;;;;;11.23;4.75;;;9.60;25.30;;;;;;5525120;26;20704;-71
2024/04/22 08:08:37;;;;;;;5.85;3.88;;;9.60;25.70;;;;;;5525236;26;20376;-71
2024/04/22 08:11:02;;;;;;;7.97;4.25;;;9.70;24.40;;;;;;5525981;26;20379;-72
2024/04/22 08:13:28;;;;;;;8.13;4.30;;;9.80;24.60;;;;;;5525229;26;20358;-71
2024/04/22 08:15:54;;;;;;;8.10;4.60;;;10.00;24.70;;;;;;5492276;26;20821;-70
2024/04/22 08:18:19;;;;;;;5.30;4.20;;;10.20;23.80;;;;;;5524802;26;20726;-72
2024/04/22 08:20:45;;;;;;;5.82;3.40;;;10.40;23.10;;;;;;5525249;26;20655;-72
2024/04/22 08:23:10;;;;;;;7.90;3.60;;;10.30;20.20;;;;;;5525804;26;20368;-71
2024/04/22 08:25:36;;;;;;;5.80;3.58;;;10.30;21.10;;;;;;5493127;26;20371;-71
2024/04/22 08:28:01;;;;;;;6.50;3.97;;;10.60;19.50;;;;;;5533094;26;20343;-72
2024/04/22 08:30:27;;;;;;;5.83;4.10;;;10.80;19.50;;;;;;5538270;26;20402;-72
2024/04/22 08:32:54;;;;;;;6.65;3.60;;;11.10;19.70;;;;;;5540560;26;20727;-71
2024/04/22 08:35:19;;;;;;;5.10;3.42;;;11.40;17.60;;;;;;5525807;26;20331;-71
2024/04/22 08:37:45;;;;;;;6.78;4.10;;;11.50;17.10;;;;;;5524905;26;20339;-71
2024/04/22 08:40:11;;;;;;;6.88;4.00;;;11.20;16.40;;;;;;5523974;26;20436;-70
2024/04/22 08:42:38;;;;;;;7.38;4.28;;;11.20;16.90;;;;;;5524030;26;20431;-70
2024/04/22 08:45:05;;;;;;;6.97;4.13;;;11.40;17.70;;;;;;5524155;26;20331;-71
2024/04/22 08:47:31;;;;;;;5.90;3.67;;;11.60;17.40;;;;;;5520744;26;20359;-71
2024/04/22 08:49:56;;;;;;;7.00;3.78;;;11.60;16.80;;;;;;5524725;25;20343;-72
2024/04/22 08:52:22;;;;;;;7.97;3.97;;;11.30;17.00;;;;;;5524657;26;20367;-71
2024/04/22 08:54:48;;;;;;;6.68;3.88;;;11.10;18.20;;;;;;5524454;26;20408;-71
2024/04/22 08:57:14;;;;;;;8.50;3.70;;;10.80;17.40;;;;;;5524195;26;20339;-72
2024/04/22 08:59:40;;;;;;;5.65;3.85;;;10.60;17.90;;;;;;5524492;26;20823;-71
2024/04/22 09:02:05;;;;;;;6.15;4.03;;;10.70;18.00;;;;;;5524383;26;20336;-71
2024/04/22 09:04:31;;;;;;;5.10;3.60;;;10.60;18.70;;;;;;5524752;26;20395;-72
2024/04/22 09:06:56;;;;;;;8.97;4.10;;;10.60;18.80;;;;;;5524816;26;20339;-71
2024/04/22 09:09:22;;;;;;;7.30;3.93;;;10.30;19.40;;;;;;5536078;26;20331;-70
2024/04/22 09:11:52;;;;;;;5.57;3.50;;;10.50;18.50;;;;;;5540271;26;20328;-72
2024/04/22 09:14:17;;;;;;;5.25;2.70;;;10.60;17.70;;;;;;5529091;26;20336;-71
2024/04/22 09:16:43;;;;;;;10.77;3.57;;;10.70;17.20;;;;;;5524287;26;20323;-72
2024/04/22 09:19:09;;;;;;;5.50;3.10;;;10.60;16.80;;;;;;5525293;26;20362;-72
2024/04/22 09:21:37;;;;;;;5.93;3.72;;;10.30;17.90;;;;;;5525418;26;20320;-71
2024/04/22 09:24:06;;;;;;;7.20;3.37;;;10.20;19.30;;;;;;5525109;26;20367;-71
2024/04/22 09:26:33;;;;;;;6.28;3.30;;;10.00;20.30;;;;;;5523734;26;20336;-72
2024/04/22 09:29:01;;;;;;;5.28;3.75;;;10.00;20.10;;;;;;5524343;26;20424;-71
2024/04/22 09:31:27;;;;;;;6.00;4.05;;;9.70;21.00;;;;;;5523946;26;20388;-71
2024/04/22 09:33:56;;;;;;;5.28;3.60;;;9.50;22.50;;;;;;5461746;26;20368;-72
2024/04/22 09:36:22;;;;;;;8.30;4.75;;;9.20;22.80;;;;;;5523892;26;20368;-71
2024/04/22 09:38:52;;;;;;;10.30;4.22;;;9.30;24.50;;;;;;5523641;26;20331;-71
2024/04/22 09:41:20;;;;;;;8.37;4.50;;;9.40;23.00;;;;;;5523312;26;20471;-71
2024/04/22 09:43:51;;;;;;;7.03;4.90;;;9.40;24.40;;;;;;5523827;26;20324;-70
2024/04/22 09:46:17;;;;;;;6.75;5.40;;;9.20;26.00;;;;;;5524711;26;20351;-71
2024/04/22 09:48:44;;;;;;;8.13;4.88;;;9.00;29.00;;;;;;5525359;26;20319;-70
2024/04/22 09:51:11;;;;;;;7.25;5.53;;;8.80;26.70;;;;;;5527010;25;20328;-72
2024/04/22 09:53:40;;;;;;;11.20;6.40;;;8.50;31.10;;;;;;5525608;26;20327;-72
2024/04/22 09:56:09;;;;;;;11.90;5.80;;;8.40;34.10;;;;;;5526292;26;20335;-71
2024/04/22 09:58:37;;;;;;;5.95;4.97;;;8.50;35.10;;;;;;5526294;26;20351;-71
2024/04/22 10:01:03;;;;;;;6.97;4.65;;;8.60;33.00;;;;;;5522782;26;20343;-72
2024/04/22 10:03:29;;;;;;;6.63;5.13;;;8.50;33.70;;;;;;5523353;26;20315;-71
2024/04/22 10:05:57;;;;;;;7.07;4.78;;;8.80;35.30;;;;;;5523311;26;20356;-71
2024/04/22 10:08:23;;;;;;;7.72;4.90;;;8.90;34.40;;;;;;5523510;26;20324;-70
2024/04/22 10:10:48;;;;;;;6.73;5.20;;;9.30;35.20;;;;;;5523554;26;20360;-71
2024/04/22 10:13:14;;;;;;;5.53;4.20;;;9.90;35.70;;;;;;5523782;26;20351;-70
2024/04/22 10:15:40;;;;;;;9.07;4.70;;;10.30;32.90;;;;;;5490300;26;20311;-71
2024/04/22 10:18:14;;;;;;;9.80;4.60;;;10.60;31.30;;;;;;5528096;26;20323;-72
2024/04/22 10:20:41;;;;;;;9.98;5.00;;;10.90;28.60;;;;;;5535468;26;20370;-72
2024/04/22 10:23:07;;;;;;;9.90;4.63;;;11.20;28.80;;;;;;5538265;26;20333;-71
2024/04/22 10:25:33;;;;;;;8.30;5.10;;;11.30;26.00;;;;;;5529848;26;20328;-71
2024/04/22 10:27:59;;;;;;;5.50;3.73;;;11.70;25.60;;;;;;5522984;26;20735;-71
2024/04/22 10:30:32;;;;;;;6.70;4.20;;;12.10;23.90;;;;;;5522885;26;20375;-70
2024/04/22 10:32:58;;;;;;;8.23;4.80;;;12.80;22.60;;;;;;5522739;26;20363;-70
2024/04/22 10:35:23;;;;;;;8.25;5.05;;;13.20;20.80;;;;;;5523112;26;20368;-72
2024/04/22 10:37:49;;;;;;;7.90;5.05;;;13.30;18.80;;;;;;5522868;26;20327;-71
2024/04/22 10:40:14;;;;;;;9.57;5.03;;;12.90;21.00;;;;;;5522573;26;20444;-71
2024/04/22 10:42:40;;;;;;;9.97;5.10;;;13.00;19.90;;;;;;5522069;26;20332;-71
2024/04/22 10:45:06;;;;;;;10.52;5.25;;;13.00;17.70;;;;;;5521439;26;20371;-71
2024/04/22 10:47:32;;;;;;;7.10;4.30;;;13.50;17.60;;;;;;5522197;26;20353;-70
2024/04/22 10:49:58;;;;;;;6.28;4.57;;;13.30;16.20;;;;;;5522475;25;20327;-71
2024/04/22 10:52:24;;;;;;;6.53;4.90;;;12.70;16.50;;;;;;5522381;26;20363;-71
2024/04/22 10:54:49;;;;;;;7.80;5.20;;;12.00;18.70;;;;;;5521861;26;20631;-71
2024/04/22 10:57:15;;;;;;;8.13;5.13;;;11.50;22.50;;;;;;5521922;26;20367;-71
2024/04/22 10:59:40;;;;;;;9.60;5.00;;;11.00;23.00;;;;;;5521905;26;20320;-72
2024/04/22 11:02:09;;;;;;;10.97;4.80;;;10.90;23.80;;;;;;5522548;26;20327;-72
2024/04/22 11:04:37;;;;;;;11.50;5.50;;;10.90;22.50;;;;;;5489221;26;20332;-71
2024/04/22 11:07:04;;;;;;;11.10;4.82;;;10.40;26.30;;;;;;5522019;26;20363;-71
2024/04/22 11:09:31;;;;;;;7.82;4.60;;;9.90;26.60;;;;;;5522599;26;20327;-70
2024/04/22 11:11:56;;;;;;;7.45;4.40;;;9.60;27.20;;;;;;5525087;26;20920;-71
2024/04/22 11:14:22;;;;;;;7.60;4.38;;;9.40;27.50;;;;;;5525753;26;20335;-71
2024/04/22 11:16:55;;;;;;;7.57;5.40;;;9.20;28.50;;;;;;5525442;26;20328;-71
2024/04/22 11:19:20;;;;;;;9.95;5.55;;;9.10;32.50;;;;;;5525499;26;20364;-72
2024/04/22 11:21:46;;;;;;;7.53;4.90;;;9.30;33.50;;;;;;5492361;26;20834;-72
2024/04/22 11:24:12;;;;;;;8.13;5.40;;;9.30;30.00;;;;;;5525916;26;20352;-70
2024/04/22 11:26:39;;;;;;;6.60;4.60;;;9.40;30.10;;;;;;5493038;26;20927;-71
2024/04/22 11:29:05;;;;;;;6.70;5.35;;;9.40;30.50;;;;;;5525064;26;20332;-72
2024/04/22 11:31:34;;;;;;;9.35;5.75;;;9.30;30.20;;;;;;5526700;26;20335;-72
2024/04/22 11:33:59;;;;;;;7.68;5.80;;;9.30;33.40;;;;;;5525690;26;20374;-72
2024/04/22 11:36:26;;;;;;;7.93;5.90;;;9.10;35.30;;;;;;5525173;26;20412;-71
2024/04/22 11:38:51;;;;;;;9.90;6.80;;;9.20;36.50;;;;;;5525192;26;20323;-71
2024/04/22 11:41:17;;;;;;;10.87;6.87;;;9.10;36.90;;;;;;5525832;26;20698;-71
2024/04/22 11:43:43;;;;;;;9.93;6.80;;;9.00;37.40;;;;;;5493844;26;20900;-71
2024/04/22 11:46:08;;;;;;;15.67;7.53;;;8.90;37.90;;;;;;5528014;26;20368;-71
2024/04/22 11:48:34;;;;;;;13.20;7.00;;;9.20;36.80;;;;;;5533090;26;20366;-71
2024/04/22 11:50:59;;;;;;;12.07;6.90;;;9.60;36.70;;;;;;5529447;25;20343;-71
2024/04/22 11:53:25;;;;;;;7.10;5.93;;;10.10;35.80;;;;;;5526908;26;20328;-70
2024/04/22 11:55:50;;;;;;;9.65;6.30;;;10.20;33.90;;;;;;5533203;26;20355;-72
2024/04/22 11:58:18;;;;;;;10.73;7.00;;;10.20;33.10;;;;;;5537388;26;20331;-72
2024/04/22 12:00:43;;;;;;;10.65;6.18;;;10.10;34.80;;;;;;5531548;26;20320;-71
2024/04/22 12:03:09;;;;;;;8.10;5.30;;;10.30;35.40;;;;;;5494558;26;20327;-72
2024/04/22 12:05:34;;;;;;;7.03;5.40;;;10.90;28.80;;;;;;5525633;26;20441;-70
2024/04/22 12:08:00;;;;;;;7.80;6.00;;;11.20;28.80;;;;;;5526168;26;20324;-71
2024/04/22 12:10:26;;;;;;;8.70;6.17;;;11.30;27.50;;;;;;5525531;26;20762;-71
2024/04/22 12:12:51;;;;;;;9.60;6.43;;;11.40;26.90;;;;;;5525703;26;20740;-71
2024/04/22 12:15:18;;;;;;;9.80;5.90;;;11.20;29.50;;;;;;5525102;26;20855;-71
2024/04/22 12:17:44;;;;;;;8.82;6.70;;;11.70;26.80;;;;;;5525271;26;20323;-71
2024/04/22 12:20:09;;;;;;;9.87;6.43;;;12.00;25.00;;;;;;5525855;26;20421;-72
2024/04/22 12:22:35;;;;;;;8.40;6.20;;;12.00;23.40;;;;;;5524048;26;20433;-72
2024/04/22 12:25:00;;;;;;;11.75;7.35;;;11.90;22.40;;;;;;5524943;26;20320;-71
2024/04/22 12:27:27;;;;;;;15.70;8.80;;;11.70;22.30;;;;;;5524663;26;20367;-71
2024/04/22 12:29:53;;;;;;;10.90;8.43;;;12.00;25.30;;;;;;5524879;26;20343;-72
2024/04/22 12:32:19;;;;;;;11.30;7.60;;;12.20;24.80;;;;;;5524791;26;20368;-71
2024/04/22 12:34:44;;;;;;;12.25;8.43;;;12.50;22.70;;;;;;5524479;26;20332;-71
2024/04/22 12:37:10;;;;;;;11.60;8.50;;;12.90;18.40;;;;;;5524332;26;20746;-71
2024/04/22 12:39:35;;;;;;;13.83;8.67;;;12.60;18.80;;;;;;5524947;26;20328;-70
2024/04/22 12:42:01;;;;;;;10.10;7.47;;;12.40;19.00;;;;;;5524540;26;20336;-69
2024/04/22 12:44:27;;;;;;;10.50;7.27;;;12.50;17.90;;;;;;5525336;26;20358;-71
2024/04/22 12:52:20;;;;;;;10.68;7.03;;;13.90;18.00;;;;;;5524806;26;20365;-70